createdAt,value
2022-09-11T00:01:04.987Z,101915.19
2022-09-11T00:03:33.459Z,101920.56
2022-09-11T00:06:03.029Z,101927.09
2022-09-11T00:08:32.981Z,101924.56
2022-09-11T00:11:04.597Z,101914.16
2022-09-11T00:13:35.886Z,101912.81
2022-09-11T00:16:05.859Z,101922.19
2022-09-11T00:18:35.917Z,101899.34
2022-09-11T00:21:04.476Z,101927.19
2022-09-11T00:23:35.374Z,101919.44
2022-09-11T00:26:07.831Z,101933.56
2022-09-11T00:28:37.468Z,101928.88
2022-09-11T00:31:13.617Z,101933.09
2022-09-11T00:33:42.068Z,101946.66
2022-09-11T00:36:20.677Z,101918.09
2022-09-11T00:39:10.678Z,101940.66
2022-09-11T00:41:42.355Z,101937.28
2022-09-11T00:44:46.178Z,101935.28
2022-09-11T00:47:15.899Z,101921.84
2022-09-11T00:49:47.839Z,101922.16
2022-09-11T00:52:19.444Z,101915.63
2022-09-11T00:55:00.030Z,101924.88
2022-09-11T00:57:31.183Z,101916.22
2022-09-11T01:00:06.006Z,101909.03
2022-09-11T01:02:35.448Z,101881.78
2022-09-11T01:05:15.357Z,101905.94
2022-09-11T01:07:50.362Z,101896.97
2022-09-11T01:10:28.984Z,101917.53
2022-09-11T01:13:02.207Z,101915.00
2022-09-11T01:15:37.673Z,101910.16
2022-09-11T01:18:11.467Z,101899.97
2022-09-11T01:20:51.908Z,101910.88
2022-09-11T01:23:55.210Z,101906.25
2022-09-11T01:27:09.169Z,101893.19
2022-09-11T01:29:41.894Z,101882.44
2022-09-11T01:32:12.146Z,101880.25
2022-09-11T01:34:45.595Z,101876.41
2022-09-11T01:37:16.122Z,101880.63
2022-09-11T01:39:50.686Z,101884.00
2022-09-11T01:42:19.568Z,101873.41
2022-09-11T01:44:52.033Z,101861.66
2022-09-11T01:47:20.672Z,101866.41
2022-09-11T01:49:50.318Z,101870.56
2022-09-11T01:52:23.626Z,101860.19
2022-09-11T01:54:54.270Z,101851.47
2022-09-11T01:57:25.532Z,101852.78
2022-09-11T01:59:59.715Z,101853.81
2022-09-11T02:02:31.753Z,101851.81
2022-09-11T02:05:01.933Z,101838.06
2022-09-11T02:07:48.591Z,101842.44
2022-09-11T02:10:18.327Z,101845.78
2022-09-11T02:12:51.148Z,101840.41
2022-09-11T02:15:22.951Z,101825.16
2022-09-11T02:18:01.897Z,101837.25
2022-09-11T02:20:36.733Z,101838.41
2022-09-11T02:23:08.430Z,101831.34
2022-09-11T02:25:37.353Z,101828.84
2022-09-11T02:28:07.028Z,101821.97
2022-09-11T02:30:36.506Z,101830.88
2022-09-11T02:33:36.140Z,101821.78
2022-09-11T02:36:24.972Z,101821.94
2022-09-11T02:39:24.443Z,101838.53
2022-09-11T02:42:09.401Z,101838.13
2022-09-11T02:44:40.877Z,101838.63
2022-09-11T02:47:19.398Z,101832.13
2022-09-11T02:49:54.792Z,101833.63
2022-09-11T02:52:34.465Z,101838.69
2022-09-11T02:55:05.937Z,101837.00
2022-09-11T02:57:36.169Z,101827.78
2022-09-11T03:00:07.402Z,101838.03
2022-09-11T03:02:40.066Z,101844.72
2022-09-11T03:05:09.034Z,101812.16
2022-09-11T03:07:39.186Z,101841.34
2022-09-11T03:10:11.258Z,101835.97
2022-09-11T03:12:56.291Z,101830.47
2022-09-11T03:15:24.476Z,101829.97
2022-09-11T03:17:56.651Z,101814.69
2022-09-11T03:20:24.694Z,101825.59
2022-09-11T03:22:52.872Z,101811.19
2022-09-11T03:25:21.233Z,101809.88
2022-09-11T03:27:50.282Z,101806.34
2022-09-11T03:30:19.043Z,101804.19
2022-09-11T03:32:49.963Z,101807.03
2022-09-11T03:35:20.940Z,101804.19
2022-09-11T03:37:50.530Z,101796.78
2022-09-11T03:40:20.342Z,101794.63
2022-09-11T03:42:49.834Z,101788.75
2022-09-11T03:45:22.550Z,101797.50
2022-09-11T03:47:58.305Z,101790.13
2022-09-11T03:50:28.028Z,101783.56
2022-09-11T03:52:56.298Z,101784.94
2022-09-11T03:55:27.296Z,101764.44
2022-09-11T03:57:58.043Z,101781.72
2022-09-11T04:00:26.509Z,101780.88
2022-09-11T04:02:58.181Z,101786.75
2022-09-11T04:05:58.299Z,101787.41
2022-09-11T04:08:33.987Z,101777.03
2022-09-11T04:11:05.006Z,101779.19
2022-09-11T04:13:35.798Z,101787.41
2022-09-11T04:16:08.741Z,101785.56
2022-09-11T04:18:39.057Z,101793.47
2022-09-11T04:21:09.227Z,101781.72
2022-09-11T04:23:40.263Z,101780.53
2022-09-11T04:26:15.953Z,101771.66
2022-09-11T04:28:47.079Z,101780.03
2022-09-11T04:31:15.937Z,101774.66
2022-09-11T04:33:44.120Z,101774.66
2022-09-11T04:36:14.466Z,101779.03
2022-09-11T04:38:42.550Z,101748.50
2022-09-11T04:41:21.181Z,101779.03
2022-09-11T04:43:50.175Z,101773.47
2022-09-11T04:46:47.819Z,101774.81
2022-09-11T04:49:19.045Z,101776.16
2022-09-11T04:51:54.496Z,101772.97
2022-09-11T04:54:25.277Z,101767.28
2022-09-11T04:56:54.743Z,101770.97
2022-09-11T04:59:24.641Z,101765.44
2022-09-11T05:02:16.862Z,101778.50
2022-09-11T05:04:49.561Z,101769.13
2022-09-11T05:07:20.296Z,101769.28
2022-09-11T05:09:54.600Z,101771.66
2022-09-11T05:12:23.089Z,101778.84
2022-09-11T05:14:52.586Z,101779.50
2022-09-11T05:17:21.094Z,101775.97
2022-09-11T05:19:52.378Z,101787.56
2022-09-11T05:22:23.258Z,101767.97
2022-09-11T05:24:56.566Z,101780.69
2022-09-11T05:27:25.032Z,101783.38
2022-09-11T05:29:54.641Z,101777.34
2022-09-11T05:32:24.662Z,101771.28
2022-09-11T05:34:52.879Z,101783.72
2022-09-11T05:37:23.930Z,101761.91
2022-09-11T05:39:52.191Z,101777.34
2022-09-11T05:42:22.178Z,101748.81
2022-09-11T05:45:00.002Z,101754.88
2022-09-11T05:47:29.547Z,101762.22
2022-09-11T05:49:57.744Z,101756.19
2022-09-11T05:52:29.901Z,101768.09
2022-09-11T05:54:58.240Z,101777.66
2022-09-11T05:57:29.934Z,101773.13
2022-09-11T05:59:58.083Z,101767.75
2022-09-11T06:02:32.665Z,101764.41
2022-09-11T06:05:03.014Z,101763.38
2022-09-11T06:07:35.490Z,101765.91
2022-09-11T06:10:18.180Z,101765.75
2022-09-11T06:12:47.521Z,101762.88
2022-09-11T06:15:45.653Z,101764.56
2022-09-11T06:18:18.273Z,101764.56
2022-09-11T06:20:56.837Z,101769.94
2022-09-11T06:23:34.167Z,101764.06
2022-09-11T06:26:05.881Z,101769.25
2022-09-11T06:28:37.418Z,101764.91
2022-09-11T06:31:06.349Z,101764.22
2022-09-11T06:33:40.539Z,101758.50
2022-09-11T06:36:18.013Z,101751.63
2022-09-11T06:38:53.321Z,101767.72
2022-09-11T06:41:25.090Z,101760.66
2022-09-11T06:43:57.859Z,101759.81
2022-09-11T06:46:28.040Z,101769.88
2022-09-11T06:49:00.604Z,101770.53
2022-09-11T06:51:30.226Z,101763.31
2022-09-11T06:54:02.871Z,101744.06
2022-09-11T06:56:39.594Z,101774.38
2022-09-11T06:59:07.719Z,101773.03
2022-09-11T07:01:44.983Z,101773.88
2022-09-11T07:04:14.355Z,101764.44
2022-09-11T07:06:44.765Z,101767.63
2022-09-11T07:09:15.412Z,101757.41
2022-09-11T07:11:49.431Z,101742.50
2022-09-11T07:14:21.492Z,101778.88
2022-09-11T07:17:05.276Z,101788.63
2022-09-11T07:19:39.422Z,101776.16
2022-09-11T07:22:10.212Z,101776.16
2022-09-11T07:24:39.797Z,101773.75
2022-09-11T07:27:09.371Z,101771.88
2022-09-11T07:29:38.357Z,101779.06
2022-09-11T07:32:06.615Z,101783.06
2022-09-11T07:34:44.030Z,101767.59
2022-09-11T07:37:15.476Z,101770.06
2022-09-11T07:39:47.733Z,101779.09
2022-09-11T07:42:23.188Z,101782.75
2022-09-11T07:44:52.065Z,101779.50
2022-09-11T07:47:20.498Z,101784.19
2022-09-11T07:49:51.828Z,101777.44
2022-09-11T07:52:20.659Z,101742.22
2022-09-11T07:55:03.543Z,101776.03
2022-09-11T07:57:34.821Z,101774.44
2022-09-11T08:00:08.834Z,101764.91
2022-09-11T08:02:58.208Z,101775.16
2022-09-11T08:05:38.400Z,101754.34
2022-09-11T08:08:07.106Z,101774.34
2022-09-11T08:10:41.404Z,101772.97
2022-09-11T08:13:11.145Z,101775.56
2022-09-11T08:15:46.577Z,101758.78
2022-09-11T08:18:16.083Z,101737.31
2022-09-11T08:20:44.860Z,101765.38
2022-09-11T08:23:13.158Z,101770.41
2022-09-11T08:25:42.949Z,101772.56
2022-09-11T08:28:11.243Z,101752.56
2022-09-11T08:30:39.456Z,101772.66
2022-09-11T08:33:09.434Z,101764.75
2022-09-11T08:35:38.398Z,101746.88
2022-09-11T08:38:08.027Z,101760.59
2022-09-11T08:40:38.020Z,101761.88
2022-09-11T08:43:22.426Z,101768.78
2022-09-11T08:45:55.862Z,101749.44
2022-09-11T08:48:28.778Z,101755.38
2022-09-11T08:50:57.110Z,101763.38
2022-09-11T08:53:31.997Z,101774.44
2022-09-11T08:56:10.265Z,101761.78
2022-09-11T08:58:48.200Z,101770.22
2022-09-11T09:01:29.084Z,101753.28
2022-09-11T09:04:33.282Z,101763.31
2022-09-11T09:07:14.402Z,101770.47
2022-09-11T09:10:16.146Z,101772.88
2022-09-11T09:12:55.965Z,101768.97
2022-09-11T09:16:25.487Z,101774.47
2022-09-11T09:20:11.979Z,101768.25
2022-09-11T09:22:45.922Z,101764.59
2022-09-11T09:25:23.684Z,101769.59
2022-09-11T09:27:58.018Z,101755.53
2022-09-11T09:30:29.538Z,101752.25
2022-09-11T09:33:01.016Z,101760.75
2022-09-11T09:35:39.749Z,101760.00
2022-09-11T09:38:13.017Z,101740.81
2022-09-11T09:40:50.151Z,101754.31
2022-09-11T09:43:42.629Z,101754.19
2022-09-11T09:46:17.162Z,101753.22
2022-09-11T09:48:45.376Z,101750.41
2022-09-11T09:51:19.930Z,101743.50
2022-09-11T09:53:50.718Z,101746.47
2022-09-11T09:56:19.518Z,101739.88
2022-09-11T09:58:57.133Z,101727.38
2022-09-11T10:01:48.278Z,101738.94
2022-09-11T10:04:18.791Z,101745.00
2022-09-11T10:06:50.755Z,101725.38
2022-09-11T10:09:23.066Z,101725.00
2022-09-11T10:12:03.105Z,101720.44
2022-09-11T10:14:53.182Z,101727.94
2022-09-11T10:17:22.814Z,101715.03
2022-09-11T10:19:51.394Z,101715.91
2022-09-11T10:22:27.257Z,101713.84
2022-09-11T10:25:06.768Z,101718.91
2022-09-11T10:27:38.717Z,101723.47
2022-09-11T10:30:07.957Z,101719.97
2022-09-11T10:32:37.376Z,101708.16
2022-09-11T10:35:10.031Z,101705.69
2022-09-11T10:37:42.652Z,101711.94
2022-09-11T10:40:21.650Z,101714.25
2022-09-11T10:42:50.422Z,101708.63
2022-09-11T10:45:22.570Z,101715.06
2022-09-11T10:48:01.638Z,101714.03
2022-09-11T10:50:30.214Z,101716.53
2022-09-11T10:53:18.295Z,101710.31
2022-09-11T10:55:51.972Z,101699.25
2022-09-11T10:58:26.486Z,101697.16
2022-09-11T11:01:01.677Z,101694.66
2022-09-11T11:03:33.004Z,101695.50
2022-09-11T11:06:12.198Z,101693.81
2022-09-11T11:09:16.206Z,101692.34
2022-09-11T11:12:22.700Z,101675.22
2022-09-11T11:15:30.062Z,101684.34
2022-09-11T11:18:37.544Z,101678.09
2022-09-11T11:21:14.990Z,101668.28
2022-09-11T11:24:11.188Z,101662.63
2022-09-11T11:26:47.991Z,101675.94
2022-09-11T11:29:58.327Z,101674.06
2022-09-11T11:32:53.380Z,101670.13
2022-09-11T11:35:26.567Z,101667.22
2022-09-11T11:38:04.889Z,101666.38
2022-09-11T11:40:35.257Z,101652.22
2022-09-11T11:43:12.904Z,101655.91
2022-09-11T11:45:45.933Z,101662.56
2022-09-11T11:51:15.422Z,101655.44
2022-09-11T11:53:45.556Z,101661.03
2022-09-11T11:56:19.493Z,101663.50
2022-09-11T11:58:51.212Z,101654.09
2022-09-11T12:01:23.921Z,101659.91
2022-09-11T12:03:59.702Z,101656.59
2022-09-11T12:06:29.297Z,101658.03
2022-09-11T12:08:57.975Z,101643.28
2022-09-11T12:11:30.471Z,101655.94
2022-09-11T12:14:00.374Z,101660.78
2022-09-11T12:16:32.225Z,101665.41
2022-09-11T12:19:08.838Z,101666.28
2022-09-11T12:22:05.226Z,101658.00
2022-09-11T12:24:55.053Z,101660.53
2022-09-11T12:27:58.360Z,101650.19
2022-09-11T12:30:33.387Z,101657.28
2022-09-11T12:33:02.508Z,101655.63
2022-09-11T12:35:38.233Z,101635.22
2022-09-11T12:38:14.629Z,101646.88
2022-09-11T12:40:49.761Z,101653.72
2022-09-11T12:43:54.734Z,101647.88
2022-09-11T12:47:16.715Z,101636.00
2022-09-11T12:50:08.233Z,101643.13
2022-09-11T12:52:49.169Z,101614.38
2022-09-11T12:55:31.384Z,101627.19
2022-09-11T12:58:45.753Z,101630.47
2022-09-11T13:01:19.376Z,101607.31
2022-09-11T13:03:50.482Z,101607.81
2022-09-11T13:06:22.680Z,101597.22
2022-09-11T13:09:01.102Z,101610.91
2022-09-11T13:11:36.763Z,101613.78
2022-09-11T13:14:07.714Z,101595.66
2022-09-11T13:16:37.192Z,101591.03
2022-09-11T13:19:14.632Z,101607.31
2022-09-11T13:21:45.933Z,101594.88
2022-09-11T13:24:29.336Z,101581.16
2022-09-11T13:27:14.484Z,101595.34
2022-09-11T13:29:44.355Z,101594.09
2022-09-11T13:32:17.868Z,101596.19
2022-09-11T13:34:47.020Z,101591.41
2022-09-11T13:37:23.151Z,101562.09
2022-09-11T13:39:51.406Z,101582.09
2022-09-11T13:42:24.158Z,101573.78
2022-09-11T13:44:55.995Z,101585.47
2022-09-11T13:47:24.996Z,101567.53
2022-09-11T13:49:58.637Z,101580.03
2022-09-11T13:52:29.392Z,101569.19
2022-09-11T13:54:58.711Z,101568.56
2022-09-11T13:57:28.265Z,101546.81
2022-09-11T13:59:57.610Z,101563.41
2022-09-11T14:02:45.663Z,101563.22
2022-09-11T14:05:20.917Z,101568.44
2022-09-11T14:07:59.302Z,101555.28
2022-09-11T14:10:30.059Z,101548.03
2022-09-11T14:13:11.227Z,101550.94
2022-09-11T14:15:41.199Z,101545.53
2022-09-11T14:18:22.961Z,101542.41
2022-09-11T14:20:55.133Z,101516.81
2022-09-11T14:23:48.629Z,101543.44
2022-09-11T14:26:32.013Z,101535.94
2022-09-11T14:29:07.534Z,101529.25
2022-09-11T14:31:39.924Z,101502.84
2022-09-11T14:34:19.036Z,101523.00
2022-09-11T14:36:50.086Z,101511.38
2022-09-11T14:39:25.380Z,101530.91
2022-09-11T14:41:56.263Z,101504.88
2022-09-11T14:44:26.348Z,101523.19
2022-09-11T14:46:55.089Z,101517.13
2022-09-11T14:49:25.749Z,101514.41
2022-09-11T14:51:55.577Z,101509.63
2022-09-11T14:54:25.208Z,101504.41
2022-09-11T14:56:55.314Z,101505.25
2022-09-11T14:59:25.040Z,101495.03
2022-09-11T15:02:01.763Z,101492.31
2022-09-11T15:04:31.276Z,101489.75
2022-09-11T15:07:01.605Z,101488.69
2022-09-11T15:09:38.586Z,101488.22
2022-09-11T15:12:20.894Z,101479.84
2022-09-11T15:14:58.714Z,101477.44
2022-09-11T15:17:31.483Z,101474.72
2022-09-11T15:20:00.749Z,101482.72
2022-09-11T15:22:29.100Z,101475.84
2022-09-11T15:25:00.410Z,101476.06
2022-09-11T15:27:28.454Z,101466.94
2022-09-11T15:29:56.602Z,101466.31
2022-09-11T15:32:24.797Z,101468.25
2022-09-11T15:34:54.003Z,101452.25
2022-09-11T15:37:22.133Z,101463.69
2022-09-11T15:39:50.597Z,101460.81
2022-09-11T15:42:23.346Z,101453.13
2022-09-11T15:44:56.483Z,101467.75
2022-09-11T15:47:31.346Z,101459.63
2022-09-11T15:50:00.309Z,101459.38
2022-09-11T15:52:29.641Z,101460.81
2022-09-11T15:55:04.784Z,101455.41
2022-09-11T15:57:34.640Z,101457.91
2022-09-11T16:00:07.465Z,101457.69
2022-09-11T16:02:40.332Z,101427.50
2022-09-11T16:05:31.507Z,101446.56
2022-09-11T16:08:00.353Z,101449.50
2022-09-11T16:10:29.332Z,101450.75
2022-09-11T16:13:01.799Z,101436.16
2022-09-11T16:15:29.907Z,101431.94
2022-09-11T16:17:58.169Z,101431.75
2022-09-11T16:20:26.554Z,101423.59
2022-09-11T16:22:55.549Z,101408.28
2022-09-11T16:25:23.538Z,101428.34
2022-09-11T16:27:52.354Z,101426.09
2022-09-11T16:30:42.588Z,101409.22
2022-09-11T16:33:11.661Z,101412.09
2022-09-11T16:36:04.462Z,101406.06
2022-09-11T16:38:35.091Z,101418.34
2022-09-11T16:41:09.769Z,101417.75
2022-09-11T16:46:45.356Z,101415.25
2022-09-11T16:49:20.491Z,101417.34
2022-09-11T16:51:48.795Z,101371.22
2022-09-11T16:54:23.485Z,101404.34
2022-09-11T16:56:53.799Z,101419.56
2022-09-11T16:59:21.803Z,101412.47
2022-09-11T17:01:52.593Z,101401.84
2022-09-11T17:04:20.723Z,101400.88
2022-09-11T17:06:53.080Z,101411.56
2022-09-11T17:12:17.716Z,101392.09
2022-09-11T17:14:45.836Z,101391.31
2022-09-11T17:17:15.825Z,101366.63
2022-09-11T17:19:43.904Z,101390.53
2022-09-11T17:22:12.002Z,101402.84
2022-09-11T17:24:40.046Z,101406.00
2022-09-11T17:27:09.697Z,101400.81
2022-09-11T17:29:43.778Z,101406.28
2022-09-11T17:32:31.150Z,101403.78
2022-09-11T17:34:59.542Z,101398.81
2022-09-11T17:37:27.801Z,101402.13
2022-09-11T17:40:14.353Z,101400.28
2022-09-11T17:42:48.753Z,101409.06
2022-09-11T17:45:17.067Z,101399.13
2022-09-11T17:47:46.461Z,101377.91
2022-09-11T17:50:15.083Z,101377.91
2022-09-11T17:52:52.310Z,101396.03
2022-09-11T17:55:20.470Z,101395.81
2022-09-11T17:57:53.092Z,101392.91
2022-09-11T18:00:21.364Z,101388.16
2022-09-11T18:02:54.962Z,101391.47
2022-09-11T18:05:23.047Z,101392.09
2022-09-11T18:07:51.513Z,101392.34
2022-09-11T18:10:20.836Z,101394.84
2022-09-11T18:12:49.093Z,101391.72
2022-09-11T18:15:17.179Z,101370.97
2022-09-11T18:17:48.011Z,101397.34
2022-09-11T18:20:17.970Z,101391.75
2022-09-11T18:22:47.122Z,101388.03
2022-09-11T18:25:15.388Z,101387.19
2022-09-11T18:27:44.676Z,101397.59
2022-09-11T18:30:13.785Z,101398.84
2022-09-11T18:32:50.858Z,101392.19
2022-09-11T18:35:20.372Z,101397.81
2022-09-11T18:37:49.658Z,101408.44
2022-09-11T18:40:19.043Z,101401.34
2022-09-11T18:42:50.452Z,101386.38
2022-09-11T18:45:29.470Z,101405.06
2022-09-11T18:48:03.477Z,101405.06
2022-09-11T18:50:34.751Z,101403.00
2022-09-11T18:53:06.060Z,101400.09
2022-09-11T18:55:34.341Z,101404.47
2022-09-11T18:58:02.506Z,101409.22
2022-09-11T19:00:35.116Z,101384.28
2022-09-11T19:03:12.160Z,101410.66
2022-09-11T19:05:42.398Z,101399.66
2022-09-11T19:08:22.761Z,101414.00
2022-09-11T19:10:50.783Z,101410.84
2022-09-11T19:13:19.025Z,101416.69
2022-09-11T19:15:47.083Z,101422.50
2022-09-11T19:18:16.616Z,101422.50
2022-09-11T19:20:46.206Z,101423.53
2022-09-11T19:23:15.062Z,101426.03
2022-09-11T19:25:45.317Z,101417.28
2022-09-11T19:28:13.440Z,101410.44
2022-09-11T19:30:43.636Z,101424.78
2022-09-11T19:33:12.710Z,101433.72
2022-09-11T19:35:47.473Z,101429.75
2022-09-11T19:38:17.642Z,101437.03
2022-09-11T19:40:48.908Z,101431.22
2022-09-11T19:43:26.357Z,101435.78
2022-09-11T19:46:01.995Z,101429.31
2022-09-11T19:48:30.342Z,101447.41
2022-09-11T19:51:00.273Z,101455.50
2022-09-11T19:53:30.239Z,101457.19
2022-09-11T19:56:13.523Z,101457.19
2022-09-11T19:58:41.782Z,101454.47
2022-09-11T20:01:11.987Z,101461.53
2022-09-11T20:03:43.141Z,101454.47
2022-09-11T20:06:13.099Z,101430.69
2022-09-11T20:08:44.015Z,101456.94
2022-09-11T20:11:16.840Z,101452.38
2022-09-11T20:13:46.360Z,101451.31
2022-09-11T20:16:16.024Z,101421.13
2022-09-11T20:18:44.300Z,101449.88
2022-09-11T20:21:17.612Z,101446.31
2022-09-11T20:23:47.247Z,101449.88
2022-09-11T20:26:17.345Z,101451.53
2022-09-11T20:28:46.121Z,101461.31
2022-09-11T20:31:15.590Z,101447.81
2022-09-11T20:33:51.662Z,101450.94
2022-09-11T20:36:20.150Z,101452.34
2022-09-11T20:38:54.556Z,101433.59
2022-09-11T20:41:33.307Z,101437.13
2022-09-11T20:44:03.671Z,101422.38
2022-09-11T20:46:32.021Z,101396.75
2022-09-11T20:49:01.329Z,101422.34
2022-09-11T20:51:29.395Z,101425.22
2022-09-11T20:54:00.428Z,101435.00
2022-09-11T20:56:30.411Z,101430.63
2022-09-11T20:59:00.063Z,101411.03
2022-09-11T21:01:33.260Z,101430.59
2022-09-11T21:04:02.658Z,101437.66
2022-09-11T21:06:37.478Z,101416.03
2022-09-11T21:09:08.298Z,101412.72
2022-09-11T21:11:36.456Z,101402.31
2022-09-11T21:14:09.393Z,101395.66
2022-09-11T21:16:38.523Z,101410.56
2022-09-11T21:19:09.392Z,101396.84
2022-09-11T21:21:37.860Z,101400.19
2022-09-11T21:24:09.238Z,101395.19
2022-09-11T21:26:37.513Z,101393.50
2022-09-11T21:29:06.513Z,101396.22
2022-09-11T21:31:34.664Z,101377.91
2022-09-11T21:34:03.751Z,101387.25
2022-09-11T21:36:32.369Z,101400.78
2022-09-11T21:39:18.889Z,101401.22
2022-09-11T21:41:46.938Z,101380.44
2022-09-11T21:44:14.979Z,101379.63
2022-09-11T21:46:44.729Z,101376.94
2022-09-11T21:49:12.952Z,101376.09
2022-09-11T21:51:41.371Z,101365.50
2022-09-11T21:54:12.081Z,101365.66
2022-09-11T21:56:40.180Z,101372.34
2022-09-11T21:59:08.266Z,101381.50
2022-09-11T22:01:36.825Z,101369.41
2022-09-11T22:04:12.698Z,101380.66
2022-09-11T22:06:47.006Z,101379.41
2022-09-11T22:09:25.932Z,101382.09
2022-09-11T22:11:57.968Z,101382.72
2022-09-11T22:14:30.128Z,101364.41
2022-09-11T22:16:59.460Z,101388.56
2022-09-11T22:19:30.528Z,101376.09
2022-09-11T22:21:58.691Z,101363.59
2022-09-11T22:24:31.575Z,101359.78
2022-09-11T22:26:59.692Z,101388.53
2022-09-11T22:29:31.411Z,101391.44
2022-09-11T22:32:00.812Z,101389.75
2022-09-11T22:34:32.778Z,101391.81
2022-09-11T22:37:00.936Z,101378.47
2022-09-11T22:39:34.070Z,101391.44
2022-09-11T22:42:04.930Z,101390.13
2022-09-11T22:44:36.184Z,101396.63
2022-09-11T22:47:04.399Z,101395.59
2022-09-11T22:49:32.461Z,101405.09
2022-09-11T22:52:08.547Z,101388.53
2022-09-11T22:54:38.133Z,101392.91
2022-09-11T22:57:06.603Z,101379.41
2022-09-11T22:59:34.829Z,101378.13
2022-09-11T23:02:03.245Z,101372.31
2022-09-11T23:04:31.327Z,101376.88
2022-09-11T23:07:16.961Z,101358.94
2022-09-11T23:09:47.817Z,101366.66
2022-09-11T23:12:15.872Z,101352.94
2022-09-11T23:14:43.868Z,101373.53
2022-09-11T23:17:15.187Z,101366.47
2022-09-11T23:19:43.329Z,101372.28
2022-09-11T23:22:11.356Z,101369.16
2022-09-11T23:24:39.415Z,101365.44
2022-09-11T23:27:10.190Z,101354.78
2022-09-11T23:29:38.771Z,101364.41
2022-09-11T23:32:08.235Z,101360.03
2022-09-11T23:34:36.434Z,101361.28
2022-09-11T23:37:06.832Z,101353.19
2022-09-11T23:39:34.998Z,101348.38
2022-09-11T23:42:05.198Z,101347.34
2022-09-11T23:44:38.429Z,101350.72
2022-09-11T23:47:07.010Z,101341.56
2022-09-11T23:49:36.528Z,101339.91
2022-09-11T23:52:04.907Z,101352.72
2022-09-11T23:54:32.993Z,101324.88
2022-09-11T23:57:01.140Z,101326.72
2022-09-11T23:59:35.891Z,101332.75
